Impacts METAR Board INFO
IDs:

KDEN - Denver Intl, CO, US

Updated at: 1939 UTC 23 Jan 2018
Potential Impact None Slight Moderate High
Time23/07Z 23/08Z 23/09Z 23/10Z 23/11Z 23/12Z 23/13Z 23/14Z 23/15Z 23/16Z 23/17Z 23/18Z 23/19Z
VIS10 10 10 10 10 10 10 10 10 10 10 10 10
CIG110 100 110 100 220 -- -- -- -- -- -- -- --
CoverBKNBKNBKNBKNBKNSCTFEWFEWFEWFEWFEWFEWFEW
FltCatVFRVFRVFRVFRVFRVFRVFRVFRVFRVFRVFRVFRVFR
WX--------------------------
WDir22027035033023024024027002402308060
WSpd6 8 3 4 4 4 3 4 0 6 6 4 5
WGst-- -- -- -- -- -- -- -- -- -- -- -- --
Raw hourly METARs
KDEN 230653Z 22006KT 10SM BKN110 M02/M12 A3009 RMK AO2 SLP196 T10171122 400671128
KDEN 230753Z 27008KT 10SM BKN100 M01/M11 A3010 RMK AO2 SLP195 T10061111
KDEN 230853Z 35003KT 10SM BKN110 M02/M11 A3012 RMK AO2 SLP203 T10171106 53013
KDEN 230953Z 33004KT 10SM BKN100 BKN120 M01/M12 A3012 RMK AO2 SLP202 T10061122
KDEN 231053Z 23004KT 10SM SCT130 BKN220 M04/M12 A3013 RMK AO2 SLP210 T10391122
KDEN 231153Z 24004KT 10SM FEW080 FEW130 SCT220 M04/M13 A3014 RMK AO2 SLP217 T10391133 10000 21044 53004
KDEN 231253Z 24003KT 10SM FEW220 M05/M14 A3014 RMK AO2 SLP230 T10501139
KDEN 231353Z 27004KT 10SM FEW080 FEW220 M06/M14 A3015 RMK AO2 SLP246 T10561139
KDEN 231453Z 00000KT 10SM FEW070 FEW120 FEW200 M03/M14 A3018 RMK AO2 SLP249 T10331139 53011
KDEN 231553Z 24006KT 10SM FEW080 FEW200 M03/M13 A3019 RMK AO2 SLP258 T10331128
KDEN 231653Z 23006KT 10SM FEW080 FEW200 M01/M11 A3022 RMK AO2 SLP258 T10061111
KDEN 231753Z 08004KT 10SM FEW080 FEW200 01/M09 A3023 RMK AO2 SLP249 T00111089 10022 21100 51015
KDEN 231853Z 06005KT 10SM FEW080 02/M11 A3021 RMK AO2 SLP239 T00221106